Data for 04/03/2015

Time Sea-Level Adjusted Pressure Absolute Pressure Temperature Relative Humidity Dew Point   
(mb) (inHg) (mb) (inHg) (C) (F) (%) (C) (F)
00:05 1024 30.24 853 25.19 -1.7 29 68 -6.7 19.9
00:10 1024 30.24 853 25.19 -1.6 29.1 69 -6.6 20.2
00:15 1024 30.24 854 25.22 -1.6 29.1 70 -6.4 20.4
00:20 1024 30.24 854 25.22 -1.7 29 70 -6.4 20.5
00:25 1024 30.24 854 25.22 -1.7 28.9 71 -6.3 20.6
00:30 1024 30.24 854 25.22 -1.8 28.8 71 -6.3 20.6
00:35 1024 30.24 854 25.22 -1.7 28.9 71 -6.2 20.8
00:40 1024 30.24 854 25.22 -1.7 28.9 71 -6.3 20.7
00:45 1024 30.24 854 25.22 -1.7 28.9 70 -6.6 20.2
00:50 1024 30.24 854 25.22 -1.7 29 69 -6.6 20.1
00:55 1024 30.24 854 25.22 -1.6 29.1 69 -6.6 20.1
01:00 1024 30.24 854 25.22 -1.6 29.2 69 -6.5 20.3
01:05 1024 30.24 854 25.22 -1.6 29.2 70 -6.4 20.5
01:10 1024 30.24 854 25.22 -1.6 29.2 72 -6.1 21.1
01:15 1024 30.24 854 25.22 -1.6 29 71 -6.2 20.8
01:20 1024 30.24 854 25.22 -1.7 29 70 -6.4 20.4
01:25 1024 30.24 854 25.22 -1.7 28.9 66 -7.3 18.9
01:30 1024 30.24 854 25.22 -1.6 29.1 66 -7.1 19.2
01:35 1024 30.24 854 25.22 -1.6 29.2 65 -7.3 18.9
01:40 1024 30.24 854 25.22 -1.6 29.2 66 -7.1 19.2
01:45 1024 30.24 854 25.22 -1.6 29.2 66 -7.1 19.2
01:50 1024 30.24 854 25.22 -1.6 29.1 66 -7.1 19.2
01:55 1025 30.27 854 25.22 -1.6 29.1 66 -7.1 19.2
02:00 1025 30.27 854 25.22 -1.6 29.2 67 -6.9 19.5
02:05 1025 30.27 854 25.22 -1.6 29.1 67 -7 19.3
02:10 1025 30.27 854 25.22 -1.6 29.2 66 -7.2 19.1
02:15 1025 30.27 854 25.22 -1.6 29.2 67 -7 19.4
02:20 1025 30.27 854 25.22 -1.6 29.1 67 -7 19.4
02:25 1025 30.27 854 25.22 -1.6 29.2 67 -6.9 19.5
02:30 1025 30.27 854 25.22 -1.6 29.2 67 -7 19.5
02:35 1025 30.27 854 25.22 -1.6 29.1 67 -6.9 19.6
02:40 1025 30.27 854 25.22 -1.6 29.1 66 -7.3 18.9
02:45 1025 30.27 854 25.22 -1.7 29 68 -6.8 19.8
02:50 1025 30.27 854 25.22 -1.8 28.8 69 -6.8 19.8
02:55 1025 30.27 854 25.22 -1.9 28.6 68 -7.1 19.2
03:00 1025 30.27 854 25.22 -1.9 28.5 67 -7.2 19.1
03:05 1025 30.27 854 25.22 -1.9 28.5 66 -7.4 18.6
03:10 1025 30.27 854 25.22 -1.9 28.5 67 -7.3 18.9
03:15 1025 30.27 854 25.22 -2 28.5 68 -7.1 19.2
03:20 1025 30.27 854 25.22 -2 28.4 69 -7 19.4
03:25 1025 30.27 854 25.22 -2.1 28.3 69 -7 19.4
03:30 1025 30.27 854 25.22 -2.1 28.3 70 -6.9 19.5
03:35 1025 30.27 854 25.22 -2.2 28.1 70 -6.9 19.5
03:40 1025 30.27 854 25.22 -2.3 27.8 71 -7 19.4
03:45 1025 30.27 854 25.22 -2.5 27.5 71 -7.1 19.3
03:50 1025 30.27 854 25.22 -2.7 27.1 72 -7 19.4
03:55 1025 30.27 854 25.22 -2.9 26.8 73 -7 19.4
04:00 1025 30.27 854 25.22 -3.2 26.2 74 -7.2 19
04:05 1025 30.27 854 25.22 -3.2 26.2 75 -7.1 19.3
04:10 1025 30.27 854 25.22 -3.1 26.4 74 -7.1 19.2
04:15 1025 30.27 854 25.22 -3.1 26.3 74 -7.1 19.2
04:20 1025 30.27 854 25.22 -3.1 26.5 72 -7.4 18.8
04:25 1025 30.27 854 25.22 -2.8 26.9 66 -8.3 17.1
04:30 1025 30.27 854 25.22 -2.7 27.2 66 -8.2 17.2
04:35 1025 30.27 854 25.22 -2.6 27.2 65 -8.4 16.8
04:40 1025 30.27 854 25.22 -2.7 27.2 65 -8.3 17
04:45 1025 30.27 854 25.22 -2.6 27.3 64 -8.5 16.6
04:50 1025 30.27 854 25.22 -2.6 27.4 64 -8.5 16.7
04:55 1025 30.27 854 25.22 -2.6 27.3 64 -8.5 16.6
05:00 1025 30.27 854 25.22 -2.6 27.3 64 -8.6 16.6
05:05 1025 30.27 854 25.22 -2.5 27.4 64 -8.5 16.7
05:10 1025 30.27 854 25.22 -2.5 27.4 64 -8.5 16.7
05:15 1025 30.27 854 25.22 -2.6 27.3 64 -8.5 16.7
05:20 1025 30.27 854 25.22 -2.7 27.1 64 -8.6 16.5
05:25 1025 30.27 854 25.22 -2.8 27 64 -8.6 16.5
05:30 1025 30.27 854 25.22 -2.9 26.8 64 -8.7 16.4
05:35 1025 30.27 854 25.22 -2.9 26.7 65 -8.7 16.4
05:40 1025 30.27 854 25.22 -3.1 26.5 64 -8.9 16
05:45 1025 30.27 854 25.22 -3.2 26.2 65 -8.9 16
05:50 1025 30.27 854 25.22 -3.3 26 65 -8.9 15.9
05:55 1025 30.27 854 25.22 -3.5 25.7 66 -8.9 16.1
06:00 1025 30.27 854 25.22 -3.6 25.5 68 -8.7 16.4
06:05 1025 30.27 854 25.22 -3.5 25.6 68 -8.7 16.3
06:10 1025 30.27 854 25.22 -3.6 25.5 68 -8.7 16.3
06:15 1025 30.27 854 25.22 -3.7 25.4 68 -8.7 16.3
06:20 1025 30.27 854 25.22 -3.6 25.5 68 -8.6 16.5
06:25 1025 30.27 854 25.22 -3.4 25.9 67 -8.7 16.4
06:30 1025 30.27 854 25.22 -3 26.6 65 -8.7 16.3
06:35 1025 30.27 854 25.22 -2.7 27.1 62 -9.1 15.7
06:40 1025 30.27 855 25.25 -2.7 27.2 64 -8.5 16.6
06:45 1025 30.27 855 25.25 -2.9 26.8 66 -8.3 17.1
06:50 1025 30.27 855 25.25 -2.6 27.4 66 -8 17.5
06:55 1025 30.27 855 25.25 -2.4 27.6 67 -7.8 18
07:00 1026 30.3 855 25.25 -2.7 27.2 67 -8 17.7
07:05 1026 30.3 855 25.25 -2.6 27.4 65 -8.2 17.3
07:10 1026 30.3 855 25.25 -2.3 27.8 66 -7.9 17.8
07:15 1026 30.3 855 25.25 -2.1 28.2 65 -7.9 17.7
07:20 1026 30.3 855 25.25 -1.9 28.6 63 -8.1 17.5
07:25 1026 30.3 855 25.25 -1.6 29.1 62 -8 17.6
07:30 1026 30.3 855 25.25 -1.1 30 59 -8.2 17.3
07:35 1026 30.3 855 25.25 -1.1 30.1 58 -8.2 17.2
07:40 1026 30.3 855 25.25 -0.8 30.6 57 -8.3 17
07:45 1026 30.3 855 25.25 -0.7 30.8 57 -8.2 17.2
07:50 1026 30.3 855 25.25 -0.3 31.5 56 -8.1 17.5
07:55 1026 30.3 855 25.25 0.4 32.7 55 -7.6 18.3
08:00 1026 30.3 855 25.25 0.8 33.5 53 -7.7 18.1
08:05 1026 30.3 855 25.25 0.8 33.5 52 -8 17.6
08:10 1026 30.3 855 25.25 0.9 33.6 47 -9.2 15.4
08:15 1026 30.3 855 25.25 1.2 34.1 46 -9.3 15.3
08:20 1025 30.27 855 25.25 1.9 35.4 46 -8.5 16.7
08:25 1025 30.27 855 25.25 2.5 36.5 44 -8.7 16.4
08:30 1025 30.27 855 25.25 2.4 36.4 45 -8.3 17.1
08:35 1026 30.3 855 25.25 2.1 35.9 44 -8.9 16
08:40 1025 30.27 855 25.25 2.3 36.1 44 -8.8 16.2
08:45 1025 30.27 855 25.25 2.7 36.9 42 -8.8 16.1
08:50 1025 30.27 855 25.25 2.6 36.6 42 -9.2 15.5
08:55 1025 30.27 855 25.25 2.6 36.6 40 -9.7 14.6
09:00 1025 30.27 855 25.25 2.2 36 40 -9.9 14.1
09:05 1025 30.27 854 25.22 2.2 36 38 -10.8 12.6
09:10 1025 30.27 855 25.25 3.1 37.5 35 -10.8 12.5
09:15 1025 30.27 854 25.22 2.5 36.6 38 -10.6 13
09:20 1025 30.27 854 25.22 2.8 37 37 -10.5 13.1
09:25 1025 30.27 854 25.22 3.6 38.4 34 -11 12.2
09:30 1025 30.27 854 25.22 3.7 38.6 33 -11.3 11.6
09:35 1025 30.27 854 25.22 3.9 39.1 31 -11.6 11.1
09:40 1025 30.27 854 25.22 4.2 39.5 31 -11.7 11
09:45 1025 30.27 854 25.22 4.5 40 30 -11.7 10.9
09:50 1025 30.27 854 25.22 4.4 39.9 30 -11.8 10.7
09:55 1025 30.27 854 25.22 4.2 39.6 27 -13.2 8.3
10:00 1025 30.27 854 25.22 4.1 39.4 27 -13.2 8.2
10:05 1025 30.27 854 25.22 4.6 40.3 27 -12.9 8.8
10:10 1025 30.27 854 25.22 4.9 40.9 26 -12.8 8.9
10:15 1025 30.27 854 25.22 5.4 41.7 26 -12.9 8.9
10:20 1025 30.27 854 25.22 5.3 41.6 25 -13 8.5
10:25 1025 30.27 854 25.22 5.5 42 25 -12.9 8.8
10:30 1025 30.27 854 25.22 5.1 41.2 24 -13.7 7.4
10:35 1025 30.27 854 25.22 4.9 40.7 26 -12.9 8.8
10:40 1025 30.27 854 25.22 5.5 41.8 25 -13.1 8.5
10:45 1025 30.27 854 25.22 4.9 40.9 27 -12.7 9.2
10:50 1024 30.24 854 25.22 5.3 41.5 27 -12.5 9.5
10:55 1024 30.24 854 25.22 5.5 41.9 26 -12.4 9.7
11:00 1024 30.24 854 25.22 5.6 42.1 26 -12.4 9.6
11:05 1024 30.24 854 25.22 5.8 42.5 26 -12.1 10.2
11:10 1024 30.24 854 25.22 5.6 42 27 -12.1 10.3
11:15 1024 30.24 853 25.19 5.4 41.7 26 -12.7 9.1
11:20 1024 30.24 853 25.19 6 42.7 26 -12.2 10.1
11:25 1024 30.24 853 25.19 6.4 43.5 24 -12.8 9
11:30 1024 30.24 853 25.19 6.8 44.2 23 -12.8 9
11:35 1024 30.24 853 25.19 6.9 44.5 22 -13.2 8.3
11:40 1024 30.24 853 25.19 6.8 44.3 23 -13.1 8.5
11:45 1024 30.24 853 25.19 5.7 42.3 26 -12.6 9.4
11:50 1024 30.24 853 25.19 6 42.8 23 -13.9 6.9
11:55 1024 30.24 853 25.19 7 44.6 22 -13.5 7.6
12:00 1023 30.21 853 25.19 7.3 45.1 21 -13.6 7.6
12:05 1023 30.21 853 25.19 7.3 45.2 21 -13.7 7.4
12:10 1023 30.21 853 25.19 6.8 44.3 20 -14.6 5.8
12:15 1023 30.21 853 25.19 7.1 44.8 20 -14.5 5.8
12:20 1023 30.21 852 25.16 7.4 45.3 19 -14.9 5.3
12:25 1023 30.21 852 25.16 6.9 44.5 20 -14.7 5.5
12:30 1023 30.21 852 25.16 6.2 43.1 22 -14.3 6.3
12:35 1023 30.21 852 25.16 5.8 42.5 22 -14.2 6.5
12:40 1023 30.21 852 25.16 6.2 43.1 20 -15.4 4.3
12:45 1023 30.21 852 25.16 7.2 45 19 -15.3 4.5
12:50 1023 30.21 852 25.16 6.9 44.4 19 -15.1 4.9
12:55 1023 30.21 852 25.16 7.4 45.3 18 -15.5 4
13:00 1023 30.21 852 25.16 7.4 45.4 19 -15 5.1
13:05 1022 30.18 852 25.16 8 46.5 15 -16.8 1.7
13:10 1022 30.18 852 25.16 8.5 47.4 15 -17.1 1.2
13:15 1022 30.18 852 25.16 8.5 47.3 15 -17.1 1.1
13:20 1022 30.18 852 25.16 8.9 48 14 -17.4 0.6
13:25 1022 30.18 851 25.13 8 46.3 15 -17.4 0.7
13:30 1022 30.18 851 25.13 8.4 47.1 14 -17.5 0.6
13:35 1022 30.18 851 25.13 8.2 46.7 15 -17.3 0.8
13:40 1022 30.18 851 25.13 8.7 47.6 15 -16.7 1.9
13:45 1022 30.18 851 25.13 8.7 47.6 15 -16.8 1.7
13:50 1022 30.18 851 25.13 8.8 47.9 13 -18 -0.5
13:55 1022 30.18 851 25.13 8.6 47.5 14 -17.7 0.2
14:00 1022 30.18 851 25.13 8.1 46.6 14 -17.9 -0.3
14:05 1021 30.15 851 25.13 8.4 47.1 15 -17.2 1
14:10 1021 30.15 851 25.13 8 46.4 16 -16.8 1.8
14:15 1021 30.15 851 25.13 7.9 46.1 15 -16.9 1.5
14:20 1021 30.15 850 25.1 8.4 47.2 14 -17.4 0.6
14:25 1021 30.15 850 25.1 8.7 47.7 16 -16.1 3.1
14:30 1021 30.15 850 25.1 9.1 48.4 15 -16.6 2.1
14:35 1021 30.15 850 25.1 8.9 48.1 15 -16.5 2.4
14:40 1021 30.15 850 25.1 8.2 46.7 17 -15.8 3.5
14:45 1021 30.15 850 25.1 7.9 46.3 15 -17 1.4
14:50 1021 30.15 850 25.1 8 46.3 15 -17.1 1.3
14:55 1021 30.15 850 25.1 8 46.4 15 -16.9 1.7
15:00 1021 30.15 850 25.1 8.4 47.1 15 -16.9 1.6
15:05 1021 30.15 850 25.1 9.2 48.5 15 -16 3.3
15:10 1021 30.15 850 25.1 8.8 47.8 16 -15.9 3.4
15:15 1021 30.15 850 25.1 8.7 47.7 15 -16.6 2.1
15:20 1020 30.12 850 25.1 8.5 47.3 15 -16.5 2.3
15:25 1020 30.12 850 25.1 8.6 47.4 15 -16.6 2.2
15:30 1020 30.12 850 25.1 9.3 48.7 14 -16.7 2
15:35 1020 30.12 849 25.07 9 48.2 15 -16.6 2.1
15:40 1020 30.12 849 25.07 8.7 47.6 15 -16.3 2.6
15:45 1020 30.12 849 25.07 8.6 47.4 15 -16.6 2.1
15:50 1020 30.12 849 25.07 8.6 47.4 15 -16.6 2
15:55 1020 30.12 849 25.07 8.3 46.9 15 -16.9 1.6
16:00 1020 30.12 849 25.07 8.1 46.6 16 -16.5 2.4
16:05 1020 30.12 849 25.07 8.3 47 15 -16.5 2.2
16:10 1020 30.12 849 25.07 8.3 46.9 15 -16.9 1.6
16:15 1020 30.12 849 25.07 8.6 47.5 14 -17.3 0.9
16:20 1020 30.12 849 25.07 8.7 47.7 14 -17.1 1.1
16:25 1020 30.12 849 25.07 8.4 47.1 15 -17 1.3
16:30 1020 30.12 849 25.07 9.3 48.7 15 -16.5 2.3
16:35 1019 30.09 849 25.07 9.3 48.7 15 -16.4 2.4
16:40 1019 30.09 849 25.07 9 48.3 15 -16.4 2.5
16:45 1019 30.09 849 25.07 9.1 48.5 14 -17.1 1.2
16:50 1019 30.09 849 25.07 9.4 48.8 13 -18 -0.4
16:55 1019 30.09 849 25.07 9.5 49 14 -17.2 1.1
17:00 1019 30.09 849 25.07 9 48.2 14 -16.9 1.7
17:05 1019 30.09 849 25.07 8.8 47.9 15 -16.8 1.7
17:10 1019 30.09 849 25.07 8.5 47.3 15 -17 1.3
17:15 1019 30.09 849 25.07 8.6 47.5 15 -16.9 1.5
17:20 1019 30.09 849 25.07 8.3 47 15 -17 1.4
17:25 1019 30.09 849 25.07 8.4 47.1 16 -16.4 2.5
17:30 1019 30.09 849 25.07 8.4 47.1 16 -16.3 2.6
17:35 1019 30.09 848 25.04 8.5 47.2 15 -16.8 1.7
17:40 1019 30.09 848 25.04 8.3 46.9 16 -16.5 2.3
17:45 1019 30.09 848 25.04 8.1 46.5 17 -15.6 3.9
17:50 1019 30.09 848 25.04 7.9 46.1 18 -15.1 4.7
17:55 1019 30.09 848 25.04 7.7 45.9 19 -14.4 6
18:00 1019 30.09 848 25.04 7.7 45.8 19 -14.7 5.6
18:05 1019 30.09 848 25.04 7.7 45.8 19 -14.8 5.3
18:10 1019 30.09 848 25.04 7.5 45.6 19 -14.7 5.5
18:15 1019 30.09 848 25.04 7.4 45.4 19 -14.8 5.4
18:20 1019 30.09 848 25.04 7.3 45.2 19 -14.8 5.3
18:25 1019 30.09 848 25.04 7.3 45.1 20 -14.2 6.4
18:30 1019 30.09 848 25.04 7.1 44.7 20 -14.2 6.5
18:35 1019 30.09 848 25.04 6.9 44.4 22 -13.5 7.6
18:40 1019 30.09 848 25.04 6.7 44.1 21 -14 6.7
18:45 1019 30.09 848 25.04 6.7 44.1 21 -14 6.9
18:50 1019 30.09 848 25.04 6.7 44 22 -13.4 7.8
18:55 1019 30.09 848 25.04 6.5 43.8 24 -12.7 9.2
19:00 1019 30.09 848 25.04 6.4 43.5 24 -13 8.6
19:05 1019 30.09 848 25.04 6.1 43.1 24 -13 8.5
19:10 1019 30.09 848 25.04 6.1 42.9 24 -13.2 8.3
19:15 1019 30.09 848 25.04 6 42.8 25 -12.6 9.3
19:20 1019 30.09 848 25.04 5.9 42.6 24 -13.1 8.4
19:25 1019 30.09 848 25.04 5.9 42.6 24 -13.4 7.9
19:30 1019 30.09 848 25.04 5.9 42.7 24 -13.4 8
19:35 1019 30.09 848 25.04 5.9 42.6 24 -13.1 8.5
19:40 1019 30.09 848 25.04 5.8 42.5 24 -13 8.5
19:45 1019 30.09 848 25.04 5.7 42.2 26 -12.5 9.6
19:50 1019 30.09 848 25.04 5.5 42 25 -12.9 8.8
19:55 1019 30.09 848 25.04 5.5 41.9 26 -12.7 9.1
20:00 1019 30.09 848 25.04 5.5 41.8 26 -12.5 9.5
20:05 1019 30.09 848 25.04 5.6 42 26 -12.7 9.2
20:10 1019 30.09 848 25.04 5.6 42.1 26 -12.4 9.6
20:15 1019 30.09 848 25.04 5.5 41.9 26 -12.5 9.5
20:20 1019 30.09 848 25.04 5.4 41.8 26 -12.4 9.7
20:25 1019 30.09 848 25.04 5.3 41.5 27 -12.2 10.1
20:30 1019 30.09 848 25.04 5.1 41.1 29 -11.5 11.3
20:35 1019 30.09 848 25.04 4.8 40.6 29 -11.6 11.1
20:40 1019 30.09 848 25.04 4.7 40.5 30 -11.6 11.1
20:45 1019 30.09 848 25.04 4.7 40.5 29 -11.9 10.6
20:50 1019 30.09 848 25.04 4.8 40.6 29 -11.7 10.9
20:55 1019 30.09 848 25.04 4.8 40.6 28 -12.3 9.8
21:00 1019 30.09 848 25.04 5.3 41.5 23 -14.6 5.8
21:05 1019 30.09 848 25.04 5.8 42.5 23 -14 6.8
21:10 1019 30.09 848 25.04 5.9 42.6 24 -13 8.6
21:15 1019 30.09 848 25.04 5.7 42.3 28 -11.6 11.2
21:20 1019 30.09 848 25.04 5.1 41.3 29 -11.4 11.5
21:25 1019 30.09 848 25.04 4.8 40.6 28 -12.3 9.9
21:30 1019 30.09 848 25.04 4.9 40.9 26 -13.1 8.4
21:35 1019 30.09 848 25.04 5.2 41.4 24 -13.8 7.1
21:40 1019 30.09 848 25.04 5.3 41.6 24 -13.8 7.2
21:45 1019 30.09 848 25.04 5.3 41.6 24 -13.9 7.1
21:50 1019 30.09 848 25.04 5.4 41.8 22 -14.5 6
21:55 1019 30.09 848 25.04 5.5 42 22 -14.5 6
22:00 1019 30.09 848 25.04 5.6 42 22 -14.3 6.2
22:05 1019 30.09 848 25.04 5.5 41.8 22 -14.7 5.5
22:10 1019 30.09 848 25.04 5.6 42.1 21 -15.1 4.9
22:15 1019 30.09 848 25.04 5.7 42.3 22 -14.7 5.5
22:20 1019 30.09 848 25.04 5.5 42 22 -14.6 5.7
22:25 1019 30.09 848 25.04 5.5 41.8 20 -15.6 4
22:30 1019 30.09 848 25.04 5.7 42.2 20 -15.6 4
22:35 1019 30.09 848 25.04 5.8 42.4 20 -15.7 3.8
22:40 1019 30.09 848 25.04 5.7 42.3 21 -15.2 4.6
22:45 1019 30.09 848 25.04 5.5 41.9 21 -15.2 4.7
22:50 1019 30.09 848 25.04 5.3 41.5 23 -14.5 5.8
22:55 1019 30.09 848 25.04 5 41 22 -15 5
23:00 1019 30.09 848 25.04 4.8 40.6 27 -12.6 9.3
23:05 1019 30.09 848 25.04 3.8 38.8 28 -13.1 8.4
23:10 1019 30.09 848 25.04 3.4 38.2 28 -13.2 8.2
23:15 1019 30.09 848 25.04 3.4 38.1 27 -13.8 7.1
23:20 1019 30.09 848 25.04 3.5 38.4 29 -13.1 8.5
23:25 1019 30.09 848 25.04 3.2 37.8 31 -12.4 9.8
23:30 1019 30.09 848 25.04 2.9 37.2 32 -12.4 9.7
23:35 1019 30.09 848 25.04 2.8 37 34 -11.7 10.9
23:40 1019 30.09 848 25.04 2.3 36.2 36 -11.3 11.6
23:45 1019 30.09 848 25.04 2.2 36 31 -13.1 8.4
23:50 1019 30.09 848 25.04 2.8 37 30 -13.1 8.3
23:55 1019 30.09 848 25.04 2.8 37 33 -12.1 10.3
24:00 1019 30.09 848 25.04 2.5 36.4 32 -12.5 9.6